Time;durP1;ratioP1;P1;durP2;ratioP2;P2;SDS_P1;SDS_P2;PMS_P1;PMS_P2;Temp;Humidity;BMP_temperature;BMP_pressure;BME280_temperature;BME280_humidity;BME280_pressure;Samples;Min_cycle;Max_cycle;Signal;HPM_P1;HPM_P2
2020/12/08 00:01:06;;;;;;;5.80;2.07;;;;;;;6.40;100.00;101171.81;5012994;28;20174;-79
2020/12/08 00:03:32;;;;;;;7.33;3.00;;;;;;;6.44;100.00;101178.59;5011740;28;20257;-76
2020/12/08 00:05:57;;;;;;;6.77;2.60;;;;;;;6.47;100.00;101172.41;4995375;28;20188;-79
2020/12/08 00:08:23;;;;;;;5.33;1.63;;;;;;;6.49;100.00;101166.19;5011443;28;20227;-77
2020/12/08 00:10:48;;;;;;;8.20;2.23;;;;;;;6.46;100.00;101170.72;5010943;28;20252;-80
2020/12/08 00:13:14;;;;;;;5.60;2.03;;;;;;;6.38;100.00;101161.44;5011531;28;20202;-78
2020/12/08 00:15:39;;;;;;;6.30;2.03;;;;;;;6.43;100.00;101163.88;5013097;28;20555;-79
2020/12/08 00:18:05;;;;;;;8.07;2.97;;;;;;;6.35;100.00;101174.63;5012443;28;20232;-80
2020/12/08 00:20:30;;;;;;;8.53;2.63;;;;;;;6.43;100.00;101176.06;5023257;28;20173;-80
2020/12/08 00:22:56;;;;;;;8.67;1.93;;;;;;;6.36;100.00;101176.31;5015938;28;20700;-77
2020/12/08 00:25:21;;;;;;;5.90;1.67;;;;;;;6.33;100.00;101178.19;5012216;28;20652;-78
2020/12/08 00:27:47;;;;;;;6.70;1.87;;;;;;;6.34;100.00;101179.88;5018744;28;20166;-80
2020/12/08 00:30:15;;;;;;;6.33;1.87;;;;;;;6.35;100.00;101177.25;5012222;28;20182;-80
2020/12/08 00:32:42;;;;;;;6.30;1.60;;;;;;;6.27;100.00;101175.84;5012303;28;20680;-79
2020/12/08 00:35:11;;;;;;;6.70;2.37;;;;;;;6.18;100.00;101182.28;5017099;28;20513;-80
2020/12/08 00:37:42;;;;;;;5.40;1.50;;;;;;;6.15;100.00;101172.00;5019188;28;20417;-80
2020/12/08 00:40:08;;;;;;;7.10;2.13;;;;;;;6.21;100.00;101170.91;5011982;28;20420;-81
2020/12/08 00:42:36;;;;;;;8.43;2.40;;;;;;;5.99;100.00;101165.72;5012553;28;20425;-82
2020/12/08 00:45:02;;;;;;;5.53;2.07;;;;;;;5.98;100.00;101161.44;5011883;28;20190;-80
2020/12/08 00:47:27;;;;;;;6.80;2.50;;;;;;;5.92;100.00;101169.50;5012054;28;20428;-80
2020/12/08 00:49:53;;;;;;;6.43;2.30;;;;;;;5.91;100.00;101171.25;5012387;28;20182;-79
2020/12/08 00:52:18;;;;;;;6.17;1.30;;;;;;;5.91;100.00;101165.19;5012518;28;20217;-79
2020/12/08 00:54:44;;;;;;;6.33;1.70;;;;;;;5.90;100.00;101161.69;5012556;28;20185;-78
2020/12/08 00:57:09;;;;;;;6.67;2.10;;;;;;;5.85;100.00;101159.28;5015466;28;20169;-78
2020/12/08 00:59:35;;;;;;;5.43;1.70;;;;;;;5.93;100.00;101152.94;5021146;28;20166;-80
2020/12/08 01:02:00;;;;;;;5.70;1.80;;;;;;;5.87;100.00;101158.34;5011943;28;20162;-79
2020/12/08 01:04:28;;;;;;;13.37;2.80;;;;;;;5.89;100.00;101148.69;5011574;28;20212;-77
2020/12/08 01:06:53;;;;;;;6.37;2.07;;;;;;;5.84;100.00;101154.97;5012281;28;20236;-79
2020/12/08 01:09:19;;;;;;;7.23;2.50;;;;;;;5.94;100.00;101137.22;5011583;28;20799;-78
2020/12/08 01:11:45;;;;;;;5.90;2.00;;;;;;;5.87;100.00;101146.16;5013543;28;20181;-79
2020/12/08 01:14:12;;;;;;;7.17;1.57;;;;;;;5.83;100.00;101139.41;5011538;28;20194;-78
2020/12/08 01:16:38;;;;;;;5.53;2.10;;;;;;;5.79;100.00;101132.59;5012010;28;20986;-80
2020/12/08 01:19:04;;;;;;;6.40;1.70;;;;;;;5.75;100.00;101136.25;5012112;28;20447;-80
2020/12/08 01:21:30;;;;;;;5.80;1.73;;;;;;;5.75;100.00;101139.72;5011598;28;20425;-79
2020/12/08 01:23:55;;;;;;;8.67;2.43;;;;;;;5.70;100.00;101138.19;5011817;28;20441;-80
2020/12/08 01:26:23;;;;;;;7.27;1.90;;;;;;;5.59;100.00;101133.38;5009753;28;20182;-77
2020/12/08 01:28:49;;;;;;;6.70;1.80;;;;;;;5.66;100.00;101132.22;5022327;28;20208;-78
2020/12/08 01:31:14;;;;;;;6.60;2.17;;;;;;;5.55;100.00;101132.66;5013586;28;20415;-79
2020/12/08 01:33:40;;;;;;;6.30;2.23;;;;;;;5.52;100.00;101121.53;5010732;28;20847;-80
2020/12/08 01:36:06;;;;;;;5.90;2.00;;;;;;;5.49;100.00;101130.31;5011900;28;20886;-79
2020/12/08 01:38:32;;;;;;;6.60;2.53;;;;;;;5.44;100.00;101120.97;4993579;28;20182;-79
2020/12/08 01:40:57;;;;;;;7.27;2.63;;;;;;;5.52;100.00;101117.16;5011446;28;20950;-78
2020/12/08 01:43:23;;;;;;;7.60;2.50;;;;;;;5.51;100.00;101117.19;5012608;28;20289;-78
2020/12/08 01:45:49;;;;;;;5.87;2.10;;;;;;;5.57;100.00;101123.03;5011536;28;20170;-79
2020/12/08 01:48:15;;;;;;;7.20;2.40;;;;;;;5.51;100.00;101120.66;5011445;28;20445;-79
2020/12/08 01:50:41;;;;;;;8.00;2.27;;;;;;;5.65;100.00;101121.88;5010944;28;20181;-78
2020/12/08 01:53:10;;;;;;;6.70;1.23;;;;;;;5.40;100.00;101124.63;5009838;28;20453;-79
2020/12/08 01:55:38;;;;;;;7.13;2.40;;;;;;;5.33;100.00;101116.19;5011421;28;20405;-78
2020/12/08 01:58:20;;;;;;;9.33;2.30;;;;;;;5.28;100.00;101108.53;5012118;28;20421;-81
2020/12/08 02:00:47;;;;;;;7.90;2.63;;;;;;;5.27;100.00;101103.38;5005932;28;20923;-78
2020/12/08 02:03:13;;;;;;;6.40;1.73;;;;;;;5.21;100.00;101109.72;4993714;28;20429;-73
2020/12/08 02:05:41;;;;;;;8.07;2.27;;;;;;;5.22;100.00;101106.19;5010661;28;20413;-79
2020/12/08 02:08:06;;;;;;;8.37;2.20;;;;;;;5.20;100.00;101097.56;5012018;28;20406;-77
2020/12/08 02:10:32;;;;;;;7.73;2.50;;;;;;;5.27;100.00;101103.38;5011729;28;20417;-75
2020/12/08 02:12:58;;;;;;;7.43;1.67;;;;;;;5.31;100.00;101091.97;5014643;28;20194;-77
2020/12/08 02:15:27;;;;;;;5.77;1.70;;;;;;;5.27;100.00;101096.41;5012137;28;20244;-77
2020/12/08 02:17:53;;;;;;;11.20;3.47;;;;;;;5.34;100.00;101091.81;5010940;28;20417;-78
2020/12/08 02:20:18;;;;;;;7.60;2.30;;;;;;;5.32;100.00;101083.22;5011526;28;20401;-79
2020/12/08 02:22:44;;;;;;;8.23;2.30;;;;;;;5.28;100.00;101082.47;5010569;28;20217;-77
2020/12/08 02:25:09;;;;;;;8.17;2.33;;;;;;;5.36;100.00;101081.34;5010825;28;20174;-79
2020/12/08 02:27:35;;;;;;;6.03;1.87;;;;;;;5.22;100.00;101092.31;5011139;28;20181;-77
2020/12/08 02:30:01;;;;;;;6.40;1.90;;;;;;;5.37;100.00;101096.09;5013235;28;20186;-79
2020/12/08 02:32:26;;;;;;;7.50;2.10;;;;;;;5.22;100.00;101087.97;5019352;28;20821;-77
2020/12/08 02:34:52;;;;;;;7.23;2.60;;;;;;;5.26;100.00;101092.13;5010607;28;20225;-80
2020/12/08 02:37:17;;;;;;;7.47;2.60;;;;;;;5.22;100.00;101082.75;5010761;28;20178;-80
2020/12/08 02:39:43;;;;;;;6.23;2.50;;;;;;;5.34;100.00;101083.16;5010619;28;20565;-80
2020/12/08 02:42:08;;;;;;;6.87;2.10;;;;;;;5.24;100.00;101093.09;5016884;28;20652;-80
2020/12/08 02:44:34;;;;;;;6.97;2.40;;;;;;;5.29;100.00;101084.22;5022017;28;20177;-79
2020/12/08 02:46:59;;;;;;;6.40;1.83;;;;;;;5.32;100.00;101071.97;5010828;28;20332;-79
2020/12/08 02:49:25;;;;;;;7.77;2.17;;;;;;;5.43;100.00;101072.38;5010940;28;20174;-78
2020/12/08 02:51:56;;;;;;;6.30;2.50;;;;;;;5.59;100.00;101068.22;5013081;28;20169;-79
2020/12/08 02:54:21;;;;;;;7.73;2.00;;;;;;;5.49;100.00;101059.09;5007947;28;20206;-78
2020/12/08 02:56:47;;;;;;;7.97;2.47;;;;;;;5.34;100.00;101073.59;5010713;28;20449;-77
2020/12/08 02:59:12;;;;;;;7.10;1.83;;;;;;;5.31;100.00;101067.66;5009802;28;20174;-76
2020/12/08 03:01:37;;;;;;;7.07;2.43;;;;;;;5.34;100.00;101067.53;5010619;28;20647;-77
2020/12/08 03:04:03;;;;;;;7.10;1.30;;;;;;;5.33;100.00;101068.44;5013938;28;20181;-79
2020/12/08 03:06:29;;;;;;;5.27;2.17;;;;;;;5.19;100.00;101071.59;5013355;28;20173;-78
2020/12/08 03:08:54;;;;;;;7.33;2.40;;;;;;;5.12;100.00;101062.31;4996874;28;20182;-78
2020/12/08 03:11:20;;;;;;;8.60;2.50;;;;;;;5.19;100.00;101072.44;5014561;28;20555;-79
2020/12/08 03:13:45;;;;;;;10.57;2.00;;;;;;;5.12;100.00;101083.16;5013905;28;20298;-78
2020/12/08 03:16:16;;;;;;;6.47;1.80;;;;;;;5.19;100.00;101077.63;5014748;28;20178;-77
2020/12/08 03:18:42;;;;;;;5.77;2.20;;;;;;;5.17;100.00;101078.63;5011106;28;20166;-80
2020/12/08 03:21:07;;;;;;;5.87;2.13;;;;;;;5.00;100.00;101085.34;5013167;28;20436;-80
2020/12/08 03:23:33;;;;;;;8.53;2.20;;;;;;;4.96;100.00;101088.09;5013048;28;20166;-78
2020/12/08 03:25:58;;;;;;;7.90;2.20;;;;;;;4.99;100.00;101082.78;5013786;28;20816;-79
2020/12/08 03:28:24;;;;;;;5.90;1.80;;;;;;;4.99;100.00;101083.63;5013954;28;20228;-76
2020/12/08 03:30:49;;;;;;;4.87;1.60;;;;;;;5.06;100.00;101086.81;5014312;28;20205;-79
2020/12/08 03:33:15;;;;;;;5.50;1.90;;;;;;;5.24;100.00;101088.75;5013812;28;20202;-77
2020/12/08 03:35:40;;;;;;;6.37;1.93;;;;;;;5.20;100.00;101097.56;5013697;28;20294;-79
2020/12/08 03:38:06;;;;;;;5.30;1.73;;;;;;;5.24;100.00;101100.91;5013299;28;20551;-77
2020/12/08 03:40:31;;;;;;;4.90;2.10;;;;;;;5.20;100.00;101097.56;5013865;28;20253;-78
2020/12/08 03:42:57;;;;;;;8.57;6.00;;;;;;;5.14;100.00;101110.84;5020701;28;20263;-77
2020/12/08 03:45:22;;;;;;;6.80;2.17;;;;;;;5.12;100.00;101107.44;5014523;28;20182;-80
2020/12/08 03:47:48;;;;;;;5.33;2.23;;;;;;;5.17;100.00;101102.06;5013562;28;20658;-80
2020/12/08 03:50:13;;;;;;;5.83;2.67;;;;;;;5.26;100.00;101112.97;5013570;28;20579;-80
2020/12/08 03:52:39;;;;;;;5.97;2.30;;;;;;;5.20;100.00;101113.19;5018680;28;20214;-79
2020/12/08 03:55:04;;;;;;;6.07;1.60;;;;;;;5.16;100.00;101110.78;5013283;28;20193;-79
2020/12/08 03:57:30;;;;;;;4.60;1.53;;;;;;;4.94;100.00;101106.38;5013810;28;20205;-79
2020/12/08 03:59:56;;;;;;;5.30;1.80;;;;;;;4.97;100.00;101111.47;5013282;28;20216;-77
2020/12/08 04:02:21;;;;;;;5.60;2.33;;;;;;;4.76;100.00;101104.47;5012699;28;20429;-79
2020/12/08 04:04:50;;;;;;;6.07;1.67;;;;;;;4.76;100.00;101107.09;5013289;28;20256;-80
2020/12/08 04:07:15;;;;;;;6.00;1.37;;;;;;;4.70;100.00;101113.34;5012599;28;20186;-75
2020/12/08 04:09:41;;;;;;;6.87;1.43;;;;;;;4.70;100.00;101117.72;5016956;28;20426;-79
2020/12/08 04:12:06;;;;;;;5.10;1.60;;;;;;;4.80;100.00;101105.19;5013369;28;20241;-77
2020/12/08 04:14:31;;;;;;;4.30;1.20;;;;;;;4.78;100.00;101097.47;5012068;28;20709;-79
2020/12/08 04:16:57;;;;;;;4.80;1.83;;;;;;;4.71;100.00;101104.63;5013421;28;20167;-79
2020/12/08 04:19:23;;;;;;;5.37;1.40;;;;;;;4.79;100.00;101101.75;5013586;28;20250;-78
2020/12/08 04:21:48;;;;;;;4.93;1.40;;;;;;;4.68;100.00;101098.69;5013044;28;20177;-79
2020/12/08 04:24:14;;;;;;;4.90;1.20;;;;;;;4.65;100.00;101093.59;5013455;28;20920;-78
2020/12/08 04:26:44;;;;;;;4.97;1.30;;;;;;;4.67;100.00;101100.44;5016610;28;20587;-80
2020/12/08 04:29:09;;;;;;;4.13;1.13;;;;;;;4.56;100.00;101110.41;5011646;28;20174;-77
2020/12/08 04:31:35;;;;;;;5.43;1.53;;;;;;;4.67;100.00;101125.59;5012674;28;20421;-79
2020/12/08 04:34:01;;;;;;;5.80;1.90;;;;;;;4.52;100.00;101107.94;5011611;28;20639;-77
2020/12/08 04:36:26;;;;;;;11.50;3.57;;;;;;;4.59;100.00;101125.88;5012488;28;20710;-79
2020/12/08 04:38:52;;;;;;;9.50;3.27;;;;;;;4.67;100.00;101112.59;5012835;28;20253;-79
2020/12/08 04:41:25;;;;;;;8.17;2.50;;;;;;;4.77;100.00;101115.75;5024949;28;20541;-80
2020/12/08 04:43:51;;;;;;;7.07;2.30;;;;;;;4.68;100.00;101124.69;5011625;28;20261;-81
2020/12/08 04:46:19;;;;;;;5.07;1.70;;;;;;;4.84;100.00;101112.84;5012226;28;20425;-80
2020/12/08 04:48:44;;;;;;;6.07;2.37;;;;;;;4.79;100.00;101122.56;5012283;28;20793;-80
2020/12/08 04:51:10;;;;;;;5.20;2.43;;;;;;;4.78;100.00;101130.44;5012009;28;20414;-80
2020/12/08 04:53:35;;;;;;;5.20;1.67;;;;;;;4.93;100.00;101120.31;5011371;28;20190;-80
2020/12/08 04:56:01;;;;;;;4.80;1.73;;;;;;;4.88;100.00;101127.44;5012731;28;20189;-81
2020/12/08 04:58:28;;;;;;;4.77;1.50;;;;;;;4.73;100.00;101126.25;5020083;28;20228;-80
2020/12/08 05:00:53;;;;;;;4.03;1.63;;;;;;;4.56;100.00;101131.22;5012370;28;20201;-81
2020/12/08 05:03:27;;;;;;;4.63;1.33;;;;;;;4.55;100.00;101131.28;5012241;28;20801;-79
2020/12/08 05:05:53;;;;;;;5.27;1.30;;;;;;;4.57;100.00;101129.47;5011776;28;20177;-80
2020/12/08 05:08:19;;;;;;;4.93;1.53;;;;;;;4.54;100.00;101127.81;5011160;28;20457;-80
2020/12/08 05:10:48;;;;;;;5.70;2.10;;;;;;;4.48;100.00;101130.63;5011850;28;20995;-79
2020/12/08 05:13:26;;;;;;;6.93;2.83;;;;;;;4.57;100.00;101121.66;5011731;28;20256;-80
2020/12/08 05:16:05;;;;;;;5.77;1.83;;;;;;;4.46;100.00;101119.44;5011858;28;20413;-78
2020/12/08 05:18:36;;;;;;;5.80;1.80;;;;;;;4.51;100.00;101117.50;5017529;28;20419;-79
2020/12/08 05:21:09;;;;;;;7.50;1.90;;;;;;;4.55;100.00;101110.47;5011250;28;20421;-78
2020/12/08 05:23:45;;;;;;;6.67;2.03;;;;;;;4.55;100.00;101113.91;5002732;28;20445;-81
2020/12/08 05:26:11;;;;;;;5.53;2.27;;;;;;;4.62;100.00;101110.19;5011240;28;20482;-81
2020/12/08 05:28:38;;;;;;;5.17;1.87;;;;;;;4.48;100.00;101107.22;5011251;28;20416;-79
2020/12/08 05:31:04;;;;;;;5.80;1.80;;;;;;;4.56;100.00;101115.59;5013679;28;20440;-81
2020/12/08 05:33:30;;;;;;;6.67;2.03;;;;;;;4.53;100.00;101120.03;5011739;28;20500;-79
2020/12/08 05:35:58;;;;;;;5.40;1.87;;;;;;;4.69;100.00;101113.41;5010404;28;20500;-79
2020/12/08 05:38:38;;;;;;;5.63;1.77;;;;;;;4.56;100.00;101104.34;5012416;28;20194;-78
2020/12/08 05:41:06;;;;;;;4.50;1.60;;;;;;;4.45;100.00;101115.97;5017932;28;20946;-80
2020/12/08 05:43:41;;;;;;;5.17;1.70;;;;;;;4.41;100.00;101105.75;5011179;28;20401;-77
2020/12/08 05:46:09;;;;;;;5.20;1.83;;;;;;;4.40;100.00;101107.50;5011629;28;21008;-78
2020/12/08 05:48:35;;;;;;;5.67;2.27;;;;;;;4.48;100.00;101125.44;5011039;28;20451;-78
2020/12/08 05:51:03;;;;;;;8.17;2.83;;;;;;;4.44;100.00;101129.88;5011480;28;20421;-80
2020/12/08 05:53:29;;;;;;;9.27;3.07;;;;;;;4.45;100.00;101143.72;5009447;28;20549;-79
2020/12/08 05:56:10;;;;;;;6.40;2.40;;;;;;;4.45;100.00;101138.53;5011364;28;20429;-80
2020/12/08 05:58:36;;;;;;;6.40;2.77;;;;;;;4.48;100.00;101146.25;5014767;28;20206;-79
2020/12/08 06:01:06;;;;;;;5.97;2.10;;;;;;;4.43;100.00;101140.34;5029730;28;20889;-78
2020/12/08 06:03:32;;;;;;;5.80;1.77;;;;;;;4.42;100.00;101141.25;5013538;28;20181;-80
2020/12/08 06:06:09;;;;;;;4.73;1.67;;;;;;;4.34;100.00;101136.31;5011902;28;20911;-80
2020/12/08 06:08:42;;;;;;;4.43;1.77;;;;;;;4.41;100.00;101140.41;5011880;28;20483;-78
2020/12/08 06:11:08;;;;;;;4.73;1.50;;;;;;;4.36;100.00;101146.66;5022574;28;20473;-77
2020/12/08 06:13:34;;;;;;;4.57;1.80;;;;;;;4.23;100.00;101153.16;5010872;28;20472;-78
2020/12/08 06:16:14;;;;;;;5.63;2.50;;;;;;;4.34;100.00;101154.53;5010018;28;20939;-79
2020/12/08 06:18:39;;;;;;;5.73;2.73;;;;;;;4.28;100.00;101144.31;5009674;28;20457;-78
2020/12/08 06:21:19;;;;;;;6.43;2.60;;;;;;;4.22;100.00;101156.69;5013281;28;20456;-78
2020/12/08 06:23:45;;;;;;;15.43;3.20;;;;;;;4.18;100.00;101155.94;4995920;28;20182;-77
2020/12/08 06:26:11;;;;;;;10.83;6.00;;;;;;;4.14;100.00;101155.19;5010459;28;20417;-78
2020/12/08 06:28:38;;;;;;;11.10;6.70;;;;;;;4.25;100.00;101156.59;5000585;28;20927;-75
2020/12/08 06:31:05;;;;;;;12.47;5.07;;;;;;;4.31;100.00;101146.84;5005523;28;20202;-74
2020/12/08 06:33:31;;;;;;;12.67;5.33;;;;;;;4.23;100.00;101138.41;5013749;28;20465;-73
2020/12/08 06:36:03;;;;;;;20.63;7.40;;;;;;;4.25;100.00;101141.84;5009926;28;20487;-74
2020/12/08 06:38:31;;;;;;;11.93;4.57;;;;;;;4.29;100.00;101150.38;5013563;28;20939;-74
2020/12/08 06:40:57;;;;;;;8.63;4.30;;;;;;;4.30;100.00;101150.31;5013338;28;20461;-78
2020/12/08 06:43:22;;;;;;;11.37;6.43;;;;;;;4.27;100.00;101146.97;4995265;28;20429;-75
2020/12/08 06:45:49;;;;;;;7.10;3.80;;;;;;;4.17;100.00;101152.50;5015362;28;20553;-75
2020/12/08 06:48:19;;;;;;;17.07;4.80;;;;;;;4.18;100.00;101154.19;5013624;28;20181;-75
2020/12/08 06:50:44;;;;;;;7.77;3.47;;;;;;;4.33;100.00;101150.22;5014285;28;20425;-75
2020/12/08 06:53:10;;;;;;;9.80;5.60;;;;;;;4.27;100.00;101149.59;5012714;28;20492;-76
2020/12/08 06:55:48;;;;;;;10.70;4.67;;;;;;;4.36;100.00;101147.50;5016946;28;20198;-74
2020/12/08 06:58:15;;;;;;;6.63;3.10;;;;;;;4.36;100.00;101144.06;5016563;28;20189;-75
2020/12/08 07:00:44;;;;;;;6.73;2.97;;;;;;;4.51;100.00;101147.88;5012643;28;20417;-75
2020/12/08 07:03:11;;;;;;;7.17;3.47;;;;;;;4.56;100.00;101152.03;5009582;28;20418;-75
2020/12/08 07:05:37;;;;;;;9.50;5.40;;;;;;;4.50;100.00;101149.63;5006413;28;20416;-76
2020/12/08 07:08:06;;;;;;;13.73;5.20;;;;;;;4.41;100.00;101143.00;5008851;28;20500;-75
2020/12/08 07:10:40;;;;;;;11.57;5.10;;;;;;;4.34;100.00;101143.28;5010017;28;20421;-74
2020/12/08 07:13:14;;;;;;;10.23;4.73;;;;;;;4.26;100.00;101143.53;5008727;28;20588;-75
2020/12/08 07:15:40;;;;;;;9.67;4.20;;;;;;;4.37;100.00;101140.56;5013118;28;20417;-74
2020/12/08 07:18:08;;;;;;;9.27;4.03;;;;;;;4.27;100.00;101137.44;5015211;28;20421;-75
2020/12/08 07:20:34;;;;;;;8.07;3.10;;;;;;;4.20;100.00;101153.28;5012844;28;20448;-75
2020/12/08 07:23:04;;;;;;;7.97;3.53;;;;;;;4.20;100.00;101151.53;5014091;28;20491;-76
2020/12/08 07:25:31;;;;;;;6.83;3.80;;;;;;;4.15;100.00;101153.44;5014140;28;20420;-75
2020/12/08 07:27:56;;;;;;;7.40;3.73;;;;;;;4.03;100.00;101153.84;5014465;28;20413;-75
2020/12/08 07:30:24;;;;;;;7.43;2.63;;;;;;;4.06;100.00;101149.41;4994677;28;20833;-76
2020/12/08 07:32:51;;;;;;;8.17;2.30;;;;;;;4.06;100.00;101144.19;5013578;28;20734;-77
2020/12/08 07:35:23;;;;;;;7.53;2.80;;;;;;;3.93;100.00;101150.72;5013448;28;20469;-77
2020/12/08 07:37:54;;;;;;;6.37;1.97;;;;;;;4.02;100.00;101154.75;5006384;28;20425;-75
2020/12/08 07:40:20;;;;;;;7.17;2.97;;;;;;;3.84;100.00;101153.59;5011741;28;20429;-76
2020/12/08 07:42:48;;;;;;;7.50;2.10;;;;;;;3.97;100.00;101156.66;4996510;28;20560;-78
2020/12/08 07:45:13;;;;;;;7.53;2.83;;;;;;;3.81;100.00;101156.31;5013013;28;20417;-75
2020/12/08 07:47:40;;;;;;;9.03;3.13;;;;;;;3.84;100.00;101159.63;5023795;28;20424;-77
2020/12/08 07:50:06;;;;;;;6.70;3.10;;;;;;;3.80;100.00;101167.59;5011930;28;20174;-75
2020/12/08 07:52:32;;;;;;;7.33;2.93;;;;;;;3.80;100.00;101170.19;5013412;28;20417;-77
2020/12/08 07:54:57;;;;;;;8.27;2.37;;;;;;;3.78;100.00;101165.06;4996028;28;20559;-73
2020/12/08 07:57:23;;;;;;;16.07;2.83;;;;;;;3.74;100.00;101173.00;5013878;28;20236;-76
2020/12/08 07:59:48;;;;;;;7.00;1.83;;;;;;;3.65;100.00;101176.72;5013475;28;20661;-77
2020/12/08 08:02:14;;;;;;;7.67;2.03;;;;;;;3.74;100.00;101170.38;5014139;28;20174;-74
2020/12/08 08:04:39;;;;;;;7.33;2.00;;;;;;;3.72;100.00;101172.19;5013969;28;20167;-75
2020/12/08 08:07:05;;;;;;;8.57;2.50;;;;;;;3.68;100.00;101174.03;5013967;28;20664;-76
2020/12/08 08:09:30;;;;;;;6.83;2.63;;;;;;;3.73;100.00;101177.34;5014470;28;20664;-75
2020/12/08 08:11:56;;;;;;;10.37;3.33;;;;;;;3.70;100.00;101179.16;5013978;28;20177;-76
2020/12/08 08:14:21;;;;;;;7.37;3.10;;;;;;;3.75;100.00;101190.28;5013782;28;20181;-77
2020/12/08 08:16:48;;;;;;;6.90;1.90;;;;;;;3.78;100.00;101191.03;5013852;28;20177;-76
2020/12/08 08:19:14;;;;;;;7.63;2.80;;;;;;;3.75;100.00;101185.91;5013720;28;20181;-76
2020/12/08 08:21:43;;;;;;;6.03;2.30;;;;;;;3.54;100.00;101184.84;5013511;28;20405;-77
2020/12/08 08:24:08;;;;;;;6.87;1.90;;;;;;;3.44;100.00;101191.22;5013269;28;20456;-76
2020/12/08 08:26:34;;;;;;;7.63;1.80;;;;;;;3.38;100.00;101193.13;5013818;28;20413;-76
2020/12/08 08:28:59;;;;;;;5.43;2.13;;;;;;;3.36;100.00;101194.94;5011035;28;20170;-77
2020/12/08 08:31:25;;;;;;;7.10;2.10;;;;;;;3.19;100.00;101204.06;5012448;28;20591;-75
2020/12/08 08:33:50;;;;;;;6.57;2.20;;;;;;;3.18;100.00;101204.13;5017110;28;20174;-76
2020/12/08 08:36:16;;;;;;;7.43;3.03;;;;;;;3.14;100.00;101203.34;4998030;28;20218;-74
2020/12/08 08:38:41;;;;;;;7.77;2.03;;;;;;;3.00;100.00;101198.53;5015798;28;20698;-73
2020/12/08 08:41:07;;;;;;;5.43;2.10;;;;;;;2.99;100.00;101196.00;5018123;28;20304;-75
2020/12/08 08:43:32;;;;;;;6.73;2.43;;;;;;;3.11;100.00;101200.84;5011881;28;20209;-74
2020/12/08 08:45:58;;;;;;;5.70;2.27;;;;;;;3.04;100.00;101200.16;5012406;28;20189;-76
2020/12/08 08:48:23;;;;;;;15.43;2.73;;;;;;;2.99;100.00;101191.66;5012409;28;20170;-75
2020/12/08 08:50:50;;;;;;;6.23;2.63;;;;;;;3.04;100.00;101194.97;5012798;28;20175;-75
2020/12/08 08:53:16;;;;;;;6.30;2.90;;;;;;;2.97;100.00;101183.06;5012693;28;20185;-75
2020/12/08 08:55:41;;;;;;;10.77;4.37;;;;;;;3.06;100.00;101190.59;5008221;28;20410;-75
2020/12/08 08:58:08;;;;;;;7.50;2.53;;;;;;;3.10;100.00;101193.97;5011875;28;20880;-75
2020/12/08 09:00:34;;;;;;;6.77;2.90;;;;;;;3.04;100.00;101202.75;5012615;28;20175;-74
2020/12/08 09:03:00;;;;;;;6.50;3.03;;;;;;;3.05;100.00;101196.69;5012342;28;20468;-76
2020/12/08 09:05:26;;;;;;;7.63;2.67;;;;;;;2.95;100.00;101197.84;5012338;28;20201;-75
2020/12/08 09:07:52;;;;;;;6.20;2.33;;;;;;;3.05;100.00;101195.81;5011284;28;20864;-75
2020/12/08 09:10:17;;;;;;;7.23;2.37;;;;;;;3.06;100.00;101193.19;5011806;28;20177;-76
2020/12/08 09:12:43;;;;;;;9.60;3.00;;;;;;;2.95;100.00;101194.41;5012219;28;20170;-75
2020/12/08 09:15:09;;;;;;;6.17;3.23;;;;;;;2.88;100.00;101195.47;5019297;28;20181;-76
2020/12/08 09:17:35;;;;;;;8.00;2.97;;;;;;;2.92;100.00;101195.31;5012487;28;20206;-75
2020/12/08 09:20:01;;;;;;;6.30;3.17;;;;;;;2.92;100.00;101195.31;5012153;28;20515;-73
2020/12/08 09:22:26;;;;;;;8.97;3.80;;;;;;;2.93;100.00;101186.63;5011465;28;20193;-76
2020/12/08 09:24:52;;;;;;;6.53;2.30;;;;;;;2.92;100.00;101187.53;5012085;28;20793;-73
2020/12/08 09:27:17;;;;;;;5.97;2.83;;;;;;;2.92;100.00;101194.47;5011292;28;20221;-73
2020/12/08 09:29:43;;;;;;;8.50;2.20;;;;;;;2.89;100.00;101198.00;5010880;28;20304;-74
2020/12/08 09:32:09;;;;;;;6.30;2.00;;;;;;;2.98;100.00;101204.69;5011635;28;20751;-75
2020/12/08 09:34:35;;;;;;;7.10;2.77;;;;;;;3.02;100.00;101204.56;5011552;28;20181;-74
2020/12/08 09:37:01;;;;;;;9.23;2.60;;;;;;;3.08;100.00;101200.91;5011341;28;20432;-74
2020/12/08 09:39:27;;;;;;;6.43;2.80;;;;;;;3.20;100.00;101197.13;5007918;28;20684;-74
2020/12/08 09:41:53;;;;;;;13.23;7.60;;;;;;;3.22;100.00;101205.72;5020255;28;20437;-74
2020/12/08 09:44:19;;;;;;;7.23;3.50;;;;;;;3.26;100.00;101210.78;5009713;28;20488;-74
2020/12/08 09:46:45;;;;;;;8.87;2.93;;;;;;;3.36;100.00;101207.91;5009456;28;20772;-73
2020/12/08 09:49:12;;;;;;;6.93;2.57;;;;;;;3.50;100.00;101198.81;5009606;28;20409;-74
2020/12/08 09:51:38;;;;;;;5.90;2.63;;;;;;;3.51;100.00;101195.31;5012824;28;20919;-74
2020/12/08 09:54:08;;;;;;;9.43;3.40;;;;;;;3.40;100.00;101205.19;5010193;28;20500;-75
2020/12/08 09:56:34;;;;;;;7.33;2.30;;;;;;;3.44;100.00;101199.00;5011047;28;20510;-74
2020/12/08 09:58:59;;;;;;;7.60;2.50;;;;;;;3.52;100.00;101207.41;5010419;28;20553;-74
2020/12/08 10:01:29;;;;;;;7.63;3.13;;;;;;;3.57;100.00;101207.28;5013387;28;20178;-75
2020/12/08 10:03:55;;;;;;;9.47;2.87;;;;;;;3.52;100.00;101217.81;5007675;28;20378;-76
2020/12/08 10:06:21;;;;;;;16.73;2.90;;;;;;;3.54;100.00;101207.34;5013544;28;20935;-74
2020/12/08 10:08:48;;;;;;;6.70;2.33;;;;;;;3.67;100.00;101205.25;5005366;28;20429;-74
2020/12/08 10:11:14;;;;;;;9.83;3.33;;;;;;;3.70;100.00;101211.19;5007631;28;20437;-74
2020/12/08 10:13:40;;;;;;;10.00;3.23;;;;;;;3.75;100.00;101209.31;5017947;28;20408;-75
2020/12/08 10:16:06;;;;;;;10.23;3.20;;;;;;;3.70;100.00;101207.75;5013957;28;20193;-75
2020/12/08 10:18:32;;;;;;;10.07;3.70;;;;;;;3.63;100.00;101204.50;5014200;28;20499;-77
2020/12/08 10:20:57;;;;;;;8.17;2.93;;;;;;;3.86;100.00;101207.25;5013927;28;20173;-74
2020/12/08 10:23:23;;;;;;;10.77;2.93;;;;;;;3.84;100.00;101202.97;5020105;28;20201;-75
2020/12/08 10:25:49;;;;;;;9.40;4.03;;;;;;;3.75;100.00;101172.09;5013617;28;20163;-75
2020/12/08 10:28:15;;;;;;;7.87;2.20;;;;;;;3.85;100.00;101199.47;5014048;28;20397;-74
2020/12/08 10:30:40;;;;;;;9.67;3.90;;;;;;;3.93;100.00;101200.09;5013755;28;20243;-73
2020/12/08 10:33:06;;;;;;;12.97;5.60;;;;;;;3.86;100.00;101204.63;5013482;28;20397;-74
2020/12/08 10:35:31;;;;;;;8.70;3.53;;;;;;;3.99;100.00;101202.47;5014142;28;20217;-73
2020/12/08 10:37:57;;;;;;;12.30;3.60;;;;;;;4.15;100.00;101208.88;5012330;28;20269;-75
2020/12/08 10:40:22;;;;;;;10.23;3.40;;;;;;;4.11;100.00;101207.28;5007658;28;20173;-75
2020/12/08 10:42:54;;;;;;;7.23;3.13;;;;;;;4.08;100.00;101211.72;5013594;28;20252;-75
2020/12/08 10:45:19;;;;;;;10.60;3.20;;;;;;;4.10;100.00;101210.81;5016017;28;20661;-76
2020/12/08 10:47:45;;;;;;;8.60;3.23;;;;;;;3.89;100.00;101208.88;5024252;28;20416;-73
2020/12/08 10:50:10;;;;;;;26.50;2.70;;;;;;;3.84;100.00;101215.97;5015013;28;20648;-73
2020/12/08 10:52:36;;;;;;;9.10;3.05;;;;;;;3.76;100.00;101215.34;5011952;28;20955;-73
2020/12/08 10:55:01;;;;;;;10.20;4.03;;;;;;;3.60;100.00;101208.03;5011799;28;20842;-72
2020/12/08 10:57:26;;;;;;;8.80;3.00;;;;;;;3.56;100.00;101206.44;5012998;28;20569;-73
2020/12/08 10:59:52;;;;;;;8.37;2.73;;;;;;;3.61;100.00;101217.53;5012833;28;20248;-74
2020/12/08 11:02:18;;;;;;;9.40;3.57;;;;;;;3.64;100.00;101202.75;5002006;28;20695;-73
2020/12/08 11:04:43;;;;;;;10.37;4.00;;;;;;;3.64;100.00;101208.81;5012241;28;20596;-75
2020/12/08 11:07:09;;;;;;;6.80;2.60;;;;;;;3.55;100.00;101211.66;5011418;28;20249;-74
2020/12/08 11:09:34;;;;;;;8.90;2.47;;;;;;;3.47;100.00;101209.28;5009395;28;20348;-72
2020/12/08 11:12:00;;;;;;;8.10;2.07;;;;;;;3.44;100.00;101203.34;5012952;28;20635;-73
2020/12/08 11:14:28;;;;;;;7.40;2.87;;;;;;;3.36;100.00;101219.16;5013087;28;20166;-73
2020/12/08 11:16:53;;;;;;;7.83;1.93;;;;;;;3.32;100.00;101217.53;5011709;28;20163;-73
2020/12/08 11:19:19;;;;;;;8.17;2.70;;;;;;;3.38;100.00;101208.72;5011813;28;20414;-74
2020/12/08 11:21:44;;;;;;;10.77;5.20;;;;;;;3.37;100.00;101213.06;5011770;28;20167;-74